sensor_id;sensor_type;location;lat;lon;timestamp;temperature;humidity
612;DHT22;293;53.888;11.464;2023-12-14T00:00:40;4.70;99.90
612;DHT22;293;53.888;11.464;2023-12-14T00:03:06;4.70;99.90
612;DHT22;293;53.888;11.464;2023-12-14T00:05:35;4.70;99.90
612;DHT22;293;53.888;11.464;2023-12-14T00:08:01;4.80;99.90
612;DHT22;293;53.888;11.464;2023-12-14T00:10:28;4.80;99.90
612;DHT22;293;53.888;11.464;2023-12-14T00:12:55;4.80;99.90
612;DHT22;293;53.888;11.464;2023-12-14T00:15:22;4.70;99.90
612;DHT22;293;53.888;11.464;2023-12-14T00:17:49;4.80;99.90
612;DHT22;293;53.888;11.464;2023-12-14T00:20:16;4.80;99.90
612;DHT22;293;53.888;11.464;2023-12-14T00:22:44;4.80;99.90
612;DHT22;293;53.888;11.464;2023-12-14T00:25:11;4.80;99.90
612;DHT22;293;53.888;11.464;2023-12-14T00:27:37;4.80;99.90
612;DHT22;293;53.888;11.464;2023-12-14T00:30:05;4.80;99.90
612;DHT22;293;53.888;11.464;2023-12-14T00:32:32;4.80;99.90
612;DHT22;293;53.888;11.464;2023-12-14T00:34:59;4.80;99.90
612;DHT22;293;53.888;11.464;2023-12-14T00:37:26;4.80;99.90
612;DHT22;293;53.888;11.464;2023-12-14T00:39:55;4.80;99.90
612;DHT22;293;53.888;11.464;2023-12-14T00:42:21;4.80;99.90
612;DHT22;293;53.888;11.464;2023-12-14T00:44:48;4.90;99.90
612;DHT22;293;53.888;11.464;2023-12-14T00:47:15;4.80;99.90
612;DHT22;293;53.888;11.464;2023-12-14T00:49:42;4.80;99.90
612;DHT22;293;53.888;11.464;2023-12-14T00:52:09;4.90;99.90
612;DHT22;293;53.888;11.464;2023-12-14T00:54:36;4.90;99.90
612;DHT22;293;53.888;11.464;2023-12-14T00:57:04;4.90;99.90
612;DHT22;293;53.888;11.464;2023-12-14T00:59:31;5.00;99.90
612;DHT22;293;53.888;11.464;2023-12-14T01:01:58;4.90;99.90
612;DHT22;293;53.888;11.464;2023-12-14T01:04:25;4.90;99.90
612;DHT22;293;53.888;11.464;2023-12-14T01:06:51;4.90;99.90
612;DHT22;293;53.888;11.464;2023-12-14T01:09:18;4.90;99.90
612;DHT22;293;53.888;11.464;2023-12-14T01:11:45;5.00;99.90
612;DHT22;293;53.888;11.464;2023-12-14T01:14:13;5.00;99.90
612;DHT22;293;53.888;11.464;2023-12-14T01:16:40;4.90;99.90
612;DHT22;293;53.888;11.464;2023-12-14T01:19:07;4.90;99.90
612;DHT22;293;53.888;11.464;2023-12-14T01:21:34;4.90;99.90
612;DHT22;293;53.888;11.464;2023-12-14T01:24:01;4.80;99.90
612;DHT22;293;53.888;11.464;2023-12-14T01:26:27;4.80;99.90
612;DHT22;293;53.888;11.464;2023-12-14T01:28:54;4.80;99.90
612;DHT22;293;53.888;11.464;2023-12-14T01:31:23;4.90;99.90
612;DHT22;293;53.888;11.464;2023-12-14T01:33:49;4.90;99.90
612;DHT22;293;53.888;11.464;2023-12-14T01:36:20;4.90;99.90
612;DHT22;293;53.888;11.464;2023-12-14T01:38:47;4.90;99.90
612;DHT22;293;53.888;11.464;2023-12-14T01:41:14;4.80;99.90
612;DHT22;293;53.888;11.464;2023-12-14T01:43:41;4.80;99.90
612;DHT22;293;53.888;11.464;2023-12-14T01:46:08;4.80;99.90
612;DHT22;293;53.888;11.464;2023-12-14T01:48:36;4.70;99.90
612;DHT22;293;53.888;11.464;2023-12-14T01:51:03;4.60;99.90
612;DHT22;293;53.888;11.464;2023-12-14T01:53:30;4.70;99.90
612;DHT22;293;53.888;11.464;2023-12-14T01:55:57;4.70;99.90
612;DHT22;293;53.888;11.464;2023-12-14T01:58:24;4.70;99.90
612;DHT22;293;53.888;11.464;2023-12-14T02:00:56;4.70;99.90
612;DHT22;293;53.888;11.464;2023-12-14T02:03:25;4.80;99.90
612;DHT22;293;53.888;11.464;2023-12-14T02:05:53;4.80;99.90
612;DHT22;293;53.888;11.464;2023-12-14T02:08:21;4.80;99.90
612;DHT22;293;53.888;11.464;2023-12-14T02:10:47;4.90;99.90
612;DHT22;293;53.888;11.464;2023-12-14T02:13:14;4.90;99.90
612;DHT22;293;53.888;11.464;2023-12-14T02:15:41;4.90;99.90
612;DHT22;293;53.888;11.464;2023-12-14T02:18:08;4.90;99.90
612;DHT22;293;53.888;11.464;2023-12-14T02:20:34;4.90;99.90
612;DHT22;293;53.888;11.464;2023-12-14T02:23:02;4.90;99.90
612;DHT22;293;53.888;11.464;2023-12-14T02:25:29;5.00;99.90
612;DHT22;293;53.888;11.464;2023-12-14T02:27:56;4.90;99.90
612;DHT22;293;53.888;11.464;2023-12-14T02:30:23;4.90;99.90
612;DHT22;293;53.888;11.464;2023-12-14T02:32:50;4.90;99.90
612;DHT22;293;53.888;11.464;2023-12-14T02:35:16;5.00;99.90
612;DHT22;293;53.888;11.464;2023-12-14T02:37:44;5.00;99.90
612;DHT22;293;53.888;11.464;2023-12-14T02:40:13;5.00;99.90
612;DHT22;293;53.888;11.464;2023-12-14T02:42:40;5.00;99.90
612;DHT22;293;53.888;11.464;2023-12-14T02:45:08;5.00;99.90
612;DHT22;293;53.888;11.464;2023-12-14T02:47:35;4.90;99.90
612;DHT22;293;53.888;11.464;2023-12-14T02:50:02;5.00;99.90
612;DHT22;293;53.888;11.464;2023-12-14T02:52:29;4.90;99.90
612;DHT22;293;53.888;11.464;2023-12-14T02:54:56;4.90;99.90
612;DHT22;293;53.888;11.464;2023-12-14T02:57:24;4.90;99.90
612;DHT22;293;53.888;11.464;2023-12-14T02:59:51;5.00;99.90
612;DHT22;293;53.888;11.464;2023-12-14T03:02:18;5.00;99.90
612;DHT22;293;53.888;11.464;2023-12-14T03:04:44;5.00;99.90
612;DHT22;293;53.888;11.464;2023-12-14T03:07:11;5.00;99.90
612;DHT22;293;53.888;11.464;2023-12-14T03:09:39;5.00;99.90
612;DHT22;293;53.888;11.464;2023-12-14T03:12:09;5.10;99.90
612;DHT22;293;53.888;11.464;2023-12-14T03:14:37;5.10;99.90
612;DHT22;293;53.888;11.464;2023-12-14T03:17:04;5.10;99.90
612;DHT22;293;53.888;11.464;2023-12-14T03:19:33;5.10;99.90
612;DHT22;293;53.888;11.464;2023-12-14T03:21:59;5.10;99.90
612;DHT22;293;53.888;11.464;2023-12-14T03:24:27;5.10;99.90
612;DHT22;293;53.888;11.464;2023-12-14T03:26:54;5.10;99.90
612;DHT22;293;53.888;11.464;2023-12-14T03:29:20;5.10;99.90
612;DHT22;293;53.888;11.464;2023-12-14T03:31:49;5.10;99.90
612;DHT22;293;53.888;11.464;2023-12-14T03:34:17;5.00;99.90
612;DHT22;293;53.888;11.464;2023-12-14T03:36:44;5.00;99.90
612;DHT22;293;53.888;11.464;2023-12-14T03:39:10;5.00;99.90
612;DHT22;293;53.888;11.464;2023-12-14T03:41:37;5.00;99.90
612;DHT22;293;53.888;11.464;2023-12-14T03:44:04;5.00;99.90
612;DHT22;293;53.888;11.464;2023-12-14T03:46:31;5.00;99.90
612;DHT22;293;53.888;11.464;2023-12-14T03:49:01;5.10;99.90
612;DHT22;293;53.888;11.464;2023-12-14T03:51:28;5.10;99.90
612;DHT22;293;53.888;11.464;2023-12-14T03:53:55;5.10;99.90
612;DHT22;293;53.888;11.464;2023-12-14T03:56:21;5.10;99.90
612;DHT22;293;53.888;11.464;2023-12-14T03:58:49;5.10;99.90
612;DHT22;293;53.888;11.464;2023-12-14T04:01:17;5.10;99.90
612;DHT22;293;53.888;11.464;2023-12-14T04:03:44;5.10;99.90
612;DHT22;293;53.888;11.464;2023-12-14T04:06:13;5.10;99.90
612;DHT22;293;53.888;11.464;2023-12-14T04:08:40;5.20;99.90
612;DHT22;293;53.888;11.464;2023-12-14T04:11:07;5.10;99.90
612;DHT22;293;53.888;11.464;2023-12-14T04:13:34;5.10;99.90
612;DHT22;293;53.888;11.464;2023-12-14T04:16:02;5.10;99.90
612;DHT22;293;53.888;11.464;2023-12-14T04:18:29;5.20;99.90
612;DHT22;293;53.888;11.464;2023-12-14T04:20:56;5.20;99.90
612;DHT22;293;53.888;11.464;2023-12-14T04:23:24;5.20;99.90
612;DHT22;293;53.888;11.464;2023-12-14T04:25:52;5.20;99.90
612;DHT22;293;53.888;11.464;2023-12-14T04:28:19;5.20;99.90
612;DHT22;293;53.888;11.464;2023-12-14T04:30:46;5.20;99.90
612;DHT22;293;53.888;11.464;2023-12-14T04:33:13;5.10;99.90
612;DHT22;293;53.888;11.464;2023-12-14T04:35:40;5.20;99.90
612;DHT22;293;53.888;11.464;2023-12-14T04:38:07;5.20;99.90
612;DHT22;293;53.888;11.464;2023-12-14T04:40:35;5.20;99.90
612;DHT22;293;53.888;11.464;2023-12-14T04:43:02;5.10;99.90
612;DHT22;293;53.888;11.464;2023-12-14T04:45:29;5.00;99.90
612;DHT22;293;53.888;11.464;2023-12-14T04:47:56;4.90;99.90
612;DHT22;293;53.888;11.464;2023-12-14T04:50:22;4.90;99.90
612;DHT22;293;53.888;11.464;2023-12-14T04:52:49;4.90;99.90
612;DHT22;293;53.888;11.464;2023-12-14T04:55:16;4.90;99.90
612;DHT22;293;53.888;11.464;2023-12-14T04:57:44;5.00;99.90
612;DHT22;293;53.888;11.464;2023-12-14T05:00:15;4.90;99.90
612;DHT22;293;53.888;11.464;2023-12-14T05:02:45;4.90;99.90
612;DHT22;293;53.888;11.464;2023-12-14T05:05:13;5.00;99.90
612;DHT22;293;53.888;11.464;2023-12-14T05:07:40;5.00;99.90
612;DHT22;293;53.888;11.464;2023-12-14T05:10:07;5.00;99.90
612;DHT22;293;53.888;11.464;2023-12-14T05:12:35;5.00;99.90
612;DHT22;293;53.888;11.464;2023-12-14T05:15:04;5.00;99.90
612;DHT22;293;53.888;11.464;2023-12-14T05:17:31;5.00;99.90
612;DHT22;293;53.888;11.464;2023-12-14T05:19:58;5.00;99.90
612;DHT22;293;53.888;11.464;2023-12-14T05:22:25;5.00;99.90
612;DHT22;293;53.888;11.464;2023-12-14T05:24:52;4.90;99.90
612;DHT22;293;53.888;11.464;2023-12-14T05:27:20;5.00;99.90
612;DHT22;293;53.888;11.464;2023-12-14T05:29:47;4.90;99.90
612;DHT22;293;53.888;11.464;2023-12-14T05:32:15;4.90;99.90
612;DHT22;293;53.888;11.464;2023-12-14T05:34:42;5.00;99.90
612;DHT22;293;53.888;11.464;2023-12-14T05:37:08;5.00;99.90
612;DHT22;293;53.888;11.464;2023-12-14T05:39:35;5.00;99.90
612;DHT22;293;53.888;11.464;2023-12-14T05:42:03;5.00;99.90
612;DHT22;293;53.888;11.464;2023-12-14T05:44:29;5.10;99.90
612;DHT22;293;53.888;11.464;2023-12-14T05:46:56;5.00;99.90
612;DHT22;293;53.888;11.464;2023-12-14T05:49:25;5.00;99.90
612;DHT22;293;53.888;11.464;2023-12-14T05:51:52;5.00;99.90
612;DHT22;293;53.888;11.464;2023-12-14T05:54:18;5.00;99.90
612;DHT22;293;53.888;11.464;2023-12-14T05:56:46;5.00;99.90
612;DHT22;293;53.888;11.464;2023-12-14T05:59:13;5.00;99.90
612;DHT22;293;53.888;11.464;2023-12-14T06:01:39;5.10;99.90
612;DHT22;293;53.888;11.464;2023-12-14T06:04:08;5.10;99.90
612;DHT22;293;53.888;11.464;2023-12-14T06:06:38;5.10;99.90
612;DHT22;293;53.888;11.464;2023-12-14T06:09:04;5.10;99.90
612;DHT22;293;53.888;11.464;2023-12-14T06:11:32;5.10;99.90
612;DHT22;293;53.888;11.464;2023-12-14T06:13:59;5.10;99.90
612;DHT22;293;53.888;11.464;2023-12-14T06:16:26;5.10;99.90
612;DHT22;293;53.888;11.464;2023-12-14T06:18:53;5.10;99.90
612;DHT22;293;53.888;11.464;2023-12-14T06:21:20;5.10;99.90
612;DHT22;293;53.888;11.464;2023-12-14T06:23:48;5.10;99.90
612;DHT22;293;53.888;11.464;2023-12-14T06:26:15;5.10;99.90
612;DHT22;293;53.888;11.464;2023-12-14T06:28:42;5.10;99.90
612;DHT22;293;53.888;11.464;2023-12-14T06:31:12;5.10;99.90
612;DHT22;293;53.888;11.464;2023-12-14T06:33:39;5.10;99.90
612;DHT22;293;53.888;11.464;2023-12-14T06:36:08;5.10;99.90
612;DHT22;293;53.888;11.464;2023-12-14T06:38:36;5.20;99.90
612;DHT22;293;53.888;11.464;2023-12-14T06:41:05;5.20;99.90
612;DHT22;293;53.888;11.464;2023-12-14T06:43:32;5.20;99.90
612;DHT22;293;53.888;11.464;2023-12-14T06:45:59;5.20;99.90
612;DHT22;293;53.888;11.464;2023-12-14T06:48:26;5.20;99.90
612;DHT22;293;53.888;11.464;2023-12-14T06:50:53;5.20;99.90
612;DHT22;293;53.888;11.464;2023-12-14T06:53:20;5.10;99.90
612;DHT22;293;53.888;11.464;2023-12-14T06:55:47;5.10;99.90
612;DHT22;293;53.888;11.464;2023-12-14T06:58:15;5.10;99.90
612;DHT22;293;53.888;11.464;2023-12-14T07:00:42;5.00;99.90
612;DHT22;293;53.888;11.464;2023-12-14T07:03:09;5.00;99.90
612;DHT22;293;53.888;11.464;2023-12-14T07:05:36;5.00;99.90
612;DHT22;293;53.888;11.464;2023-12-14T07:08:03;5.10;99.90
612;DHT22;293;53.888;11.464;2023-12-14T07:10:30;5.10;99.90
612;DHT22;293;53.888;11.464;2023-12-14T07:12:57;5.10;99.90
612;DHT22;293;53.888;11.464;2023-12-14T07:15:26;5.10;99.90
612;DHT22;293;53.888;11.464;2023-12-14T07:17:53;5.20;99.90
612;DHT22;293;53.888;11.464;2023-12-14T07:20:20;5.10;99.90
612;DHT22;293;53.888;11.464;2023-12-14T07:22:47;5.10;99.90
612;DHT22;293;53.888;11.464;2023-12-14T07:25:14;5.10;99.90
612;DHT22;293;53.888;11.464;2023-12-14T07:27:41;5.10;99.90
612;DHT22;293;53.888;11.464;2023-12-14T07:30:09;5.10;99.90
612;DHT22;293;53.888;11.464;2023-12-14T07:32:37;5.10;99.90
612;DHT22;293;53.888;11.464;2023-12-14T07:35:05;5.20;99.90
612;DHT22;293;53.888;11.464;2023-12-14T07:37:32;5.20;99.90
612;DHT22;293;53.888;11.464;2023-12-14T07:39:59;5.20;99.90
612;DHT22;293;53.888;11.464;2023-12-14T07:42:26;5.20;99.90
612;DHT22;293;53.888;11.464;2023-12-14T07:44:53;5.20;99.90
612;DHT22;293;53.888;11.464;2023-12-14T07:47:20;5.20;99.90
612;DHT22;293;53.888;11.464;2023-12-14T07:49:48;5.20;99.90
612;DHT22;293;53.888;11.464;2023-12-14T07:52:15;5.20;99.90
612;DHT22;293;53.888;11.464;2023-12-14T07:54:42;5.20;99.90
612;DHT22;293;53.888;11.464;2023-12-14T07:57:09;5.20;99.90
612;DHT22;293;53.888;11.464;2023-12-14T07:59:36;5.20;99.90
612;DHT22;293;53.888;11.464;2023-12-14T08:02:03;5.10;99.90
612;DHT22;293;53.888;11.464;2023-12-14T08:04:30;5.10;99.90
612;DHT22;293;53.888;11.464;2023-12-14T08:06:59;5.20;99.90
612;DHT22;293;53.888;11.464;2023-12-14T08:09:26;5.20;99.90
612;DHT22;293;53.888;11.464;2023-12-14T08:11:53;5.30;99.90
612;DHT22;293;53.888;11.464;2023-12-14T08:14:20;5.20;99.90
612;DHT22;293;53.888;11.464;2023-12-14T08:16:47;5.20;99.90
612;DHT22;293;53.888;11.464;2023-12-14T08:19:14;5.20;99.90
612;DHT22;293;53.888;11.464;2023-12-14T08:21:41;5.10;99.90
612;DHT22;293;53.888;11.464;2023-12-14T08:24:09;5.20;99.90
612;DHT22;293;53.888;11.464;2023-12-14T08:26:36;5.20;99.90
612;DHT22;293;53.888;11.464;2023-12-14T08:29:03;5.20;99.90
612;DHT22;293;53.888;11.464;2023-12-14T08:31:30;5.20;99.90
612;DHT22;293;53.888;11.464;2023-12-14T08:33:57;5.20;99.90
612;DHT22;293;53.888;11.464;2023-12-14T08:36:24;5.20;99.90
612;DHT22;293;53.888;11.464;2023-12-14T08:38:51;5.20;99.90
612;DHT22;293;53.888;11.464;2023-12-14T08:41:19;5.20;99.90
612;DHT22;293;53.888;11.464;2023-12-14T08:43:46;5.20;99.90
612;DHT22;293;53.888;11.464;2023-12-14T08:46:13;5.30;99.90
612;DHT22;293;53.888;11.464;2023-12-14T08:48:40;5.30;99.90
612;DHT22;293;53.888;11.464;2023-12-14T08:51:07;5.30;99.90
612;DHT22;293;53.888;11.464;2023-12-14T08:53:34;5.20;99.90
612;DHT22;293;53.888;11.464;2023-12-14T08:56:01;5.20;99.90
612;DHT22;293;53.888;11.464;2023-12-14T08:58:30;5.20;99.90
612;DHT22;293;53.888;11.464;2023-12-14T09:00:57;5.30;99.90
612;DHT22;293;53.888;11.464;2023-12-14T09:03:24;5.30;99.90
612;DHT22;293;53.888;11.464;2023-12-14T09:05:52;5.30;99.90
612;DHT22;293;53.888;11.464;2023-12-14T09:08:18;5.20;99.90
612;DHT22;293;53.888;11.464;2023-12-14T09:10:45;5.20;99.90
612;DHT22;293;53.888;11.464;2023-12-14T09:13:12;5.20;99.90
612;DHT22;293;53.888;11.464;2023-12-14T09:15:40;5.20;99.90
612;DHT22;293;53.888;11.464;2023-12-14T09:18:07;5.20;99.90
612;DHT22;293;53.888;11.464;2023-12-14T09:20:34;5.30;99.90
612;DHT22;293;53.888;11.464;2023-12-14T09:23:03;5.30;99.90
612;DHT22;293;53.888;11.464;2023-12-14T09:25:29;5.30;99.90
612;DHT22;293;53.888;11.464;2023-12-14T09:27:56;5.30;99.90
612;DHT22;293;53.888;11.464;2023-12-14T09:30:23;5.30;99.90
612;DHT22;293;53.888;11.464;2023-12-14T09:32:52;5.30;99.90
612;DHT22;293;53.888;11.464;2023-12-14T09:35:19;5.20;99.90
612;DHT22;293;53.888;11.464;2023-12-14T09:37:46;5.30;99.90
612;DHT22;293;53.888;11.464;2023-12-14T09:40:13;5.30;99.90
612;DHT22;293;53.888;11.464;2023-12-14T09:42:40;5.30;99.90
612;DHT22;293;53.888;11.464;2023-12-14T09:45:08;5.30;99.90
612;DHT22;293;53.888;11.464;2023-12-14T09:47:35;5.40;99.90
612;DHT22;293;53.888;11.464;2023-12-14T09:50:04;5.40;99.90
612;DHT22;293;53.888;11.464;2023-12-14T09:52:31;5.40;99.90
612;DHT22;293;53.888;11.464;2023-12-14T09:54:59;5.50;99.90
612;DHT22;293;53.888;11.464;2023-12-14T09:57:26;5.40;99.90
612;DHT22;293;53.888;11.464;2023-12-14T09:59:53;5.40;99.90
612;DHT22;293;53.888;11.464;2023-12-14T10:02:25;5.50;99.90
612;DHT22;293;53.888;11.464;2023-12-14T10:04:52;5.40;99.90
612;DHT22;293;53.888;11.464;2023-12-14T10:07:21;5.50;99.90
612;DHT22;293;53.888;11.464;2023-12-14T10:09:48;5.40;99.90
612;DHT22;293;53.888;11.464;2023-12-14T10:12:15;5.50;99.90
612;DHT22;293;53.888;11.464;2023-12-14T10:14:42;5.50;99.90
612;DHT22;293;53.888;11.464;2023-12-14T10:17:17;5.40;99.90
612;DHT22;293;53.888;11.464;2023-12-14T10:19:45;5.50;99.90
612;DHT22;293;53.888;11.464;2023-12-14T10:22:13;5.50;99.90
612;DHT22;293;53.888;11.464;2023-12-14T10:24:44;5.50;99.90
612;DHT22;293;53.888;11.464;2023-12-14T10:27:11;5.60;99.90
612;DHT22;293;53.888;11.464;2023-12-14T10:29:38;5.60;99.90
612;DHT22;293;53.888;11.464;2023-12-14T10:32:06;5.60;99.90
612;DHT22;293;53.888;11.464;2023-12-14T10:34:34;5.60;99.90
612;DHT22;293;53.888;11.464;2023-12-14T10:37:05;5.60;99.90
612;DHT22;293;53.888;11.464;2023-12-14T10:39:33;5.60;99.90
612;DHT22;293;53.888;11.464;2023-12-14T10:42:03;5.60;99.90
612;DHT22;293;53.888;11.464;2023-12-14T10:44:36;5.60;99.90
612;DHT22;293;53.888;11.464;2023-12-14T10:47:03;5.60;99.90
612;DHT22;293;53.888;11.464;2023-12-14T10:49:31;5.50;99.90
612;DHT22;293;53.888;11.464;2023-12-14T10:52:00;5.60;99.90
612;DHT22;293;53.888;11.464;2023-12-14T10:54:28;5.60;99.90
612;DHT22;293;53.888;11.464;2023-12-14T10:56:57;5.60;99.90
612;DHT22;293;53.888;11.464;2023-12-14T10:59:26;5.60;99.90
612;DHT22;293;53.888;11.464;2023-12-14T11:01:53;5.70;99.90
612;DHT22;293;53.888;11.464;2023-12-14T11:04:21;5.70;99.90
612;DHT22;293;53.888;11.464;2023-12-14T11:06:48;5.70;99.90
612;DHT22;293;53.888;11.464;2023-12-14T11:09:18;5.70;99.90
612;DHT22;293;53.888;11.464;2023-12-14T11:11:55;5.60;99.90
612;DHT22;293;53.888;11.464;2023-12-14T11:14:23;5.60;99.90
612;DHT22;293;53.888;11.464;2023-12-14T11:16:54;5.70;99.90
612;DHT22;293;53.888;11.464;2023-12-14T11:19:25;5.60;99.90
612;DHT22;293;53.888;11.464;2023-12-14T11:22:10;5.60;99.90
612;DHT22;293;53.888;11.464;2023-12-14T11:24:42;5.60;99.90
612;DHT22;293;53.888;11.464;2023-12-14T11:27:11;5.60;99.90
612;DHT22;293;53.888;11.464;2023-12-14T11:29:38;5.50;99.90
612;DHT22;293;53.888;11.464;2023-12-14T11:32:08;5.60;99.90
612;DHT22;293;53.888;11.464;2023-12-14T11:34:35;5.60;99.90
612;DHT22;293;53.888;11.464;2023-12-14T11:37:02;5.70;99.90
612;DHT22;293;53.888;11.464;2023-12-14T11:39:31;5.70;99.90
612;DHT22;293;53.888;11.464;2023-12-14T11:41:59;5.70;99.90
612;DHT22;293;53.888;11.464;2023-12-14T11:44:26;5.70;99.90
612;DHT22;293;53.888;11.464;2023-12-14T11:46:53;5.70;99.90
612;DHT22;293;53.888;11.464;2023-12-14T11:49:23;5.80;99.90
612;DHT22;293;53.888;11.464;2023-12-14T11:51:51;5.90;99.90
612;DHT22;293;53.888;11.464;2023-12-14T11:54:18;5.90;99.90
612;DHT22;293;53.888;11.464;2023-12-14T11:56:46;5.90;99.90
612;DHT22;293;53.888;11.464;2023-12-14T11:59:15;5.90;99.90
612;DHT22;293;53.888;11.464;2023-12-14T12:01:54;5.90;99.90
612;DHT22;293;53.888;11.464;2023-12-14T12:04:22;5.90;99.90
612;DHT22;293;53.888;11.464;2023-12-14T12:06:49;5.90;99.90
612;DHT22;293;53.888;11.464;2023-12-14T12:09:33;5.90;99.90
612;DHT22;293;53.888;11.464;2023-12-14T12:12:00;5.90;99.90
612;DHT22;293;53.888;11.464;2023-12-14T12:14:27;5.90;99.90
612;DHT22;293;53.888;11.464;2023-12-14T12:16:54;5.80;99.90
612;DHT22;293;53.888;11.464;2023-12-14T12:19:22;5.80;99.90
612;DHT22;293;53.888;11.464;2023-12-14T12:21:49;5.80;99.90
612;DHT22;293;53.888;11.464;2023-12-14T12:24:16;5.90;99.90
612;DHT22;293;53.888;11.464;2023-12-14T12:26:43;5.90;99.90
612;DHT22;293;53.888;11.464;2023-12-14T12:29:10;5.90;99.90
612;DHT22;293;53.888;11.464;2023-12-14T12:31:37;5.80;99.90
612;DHT22;293;53.888;11.464;2023-12-14T12:34:05;5.70;99.90
612;DHT22;293;53.888;11.464;2023-12-14T12:36:33;5.70;99.90
612;DHT22;293;53.888;11.464;2023-12-14T12:39:00;5.70;99.90
612;DHT22;293;53.888;11.464;2023-12-14T12:41:28;5.70;99.90
612;DHT22;293;53.888;11.464;2023-12-14T12:43:55;5.70;99.90
612;DHT22;293;53.888;11.464;2023-12-14T12:46:23;5.60;99.90
612;DHT22;293;53.888;11.464;2023-12-14T12:48:50;5.60;99.90
612;DHT22;293;53.888;11.464;2023-12-14T12:51:17;5.60;99.90
612;DHT22;293;53.888;11.464;2023-12-14T12:53:45;5.60;99.90
612;DHT22;293;53.888;11.464;2023-12-14T12:56:12;5.70;99.90
612;DHT22;293;53.888;11.464;2023-12-14T12:58:38;5.70;99.90
612;DHT22;293;53.888;11.464;2023-12-14T13:01:06;5.80;99.90
612;DHT22;293;53.888;11.464;2023-12-14T13:03:33;5.70;99.90
612;DHT22;293;53.888;11.464;2023-12-14T13:06:00;5.70;99.90
612;DHT22;293;53.888;11.464;2023-12-14T13:08:26;5.70;99.90
612;DHT22;293;53.888;11.464;2023-12-14T13:10:55;5.80;99.90
612;DHT22;293;53.888;11.464;2023-12-14T13:13:22;5.70;99.90
612;DHT22;293;53.888;11.464;2023-12-14T13:15:48;5.70;99.90
612;DHT22;293;53.888;11.464;2023-12-14T13:18:15;5.70;99.90
612;DHT22;293;53.888;11.464;2023-12-14T13:20:42;5.80;99.90
612;DHT22;293;53.888;11.464;2023-12-14T13:23:09;5.80;99.90
612;DHT22;293;53.888;11.464;2023-12-14T13:25:36;5.80;99.90
612;DHT22;293;53.888;11.464;2023-12-14T13:28:04;5.80;99.90
612;DHT22;293;53.888;11.464;2023-12-14T13:30:31;5.80;99.90
612;DHT22;293;53.888;11.464;2023-12-14T13:32:58;5.80;99.90
612;DHT22;293;53.888;11.464;2023-12-14T13:35:25;5.80;99.90
612;DHT22;293;53.888;11.464;2023-12-14T13:37:53;5.80;99.90
612;DHT22;293;53.888;11.464;2023-12-14T13:40:20;5.80;99.90
612;DHT22;293;53.888;11.464;2023-12-14T13:42:46;5.70;99.90
612;DHT22;293;53.888;11.464;2023-12-14T13:45:15;5.70;99.90
612;DHT22;293;53.888;11.464;2023-12-14T13:47:42;5.80;99.90
612;DHT22;293;53.888;11.464;2023-12-14T13:50:09;5.70;99.90
612;DHT22;293;53.888;11.464;2023-12-14T13:52:36;5.80;99.90
612;DHT22;293;53.888;11.464;2023-12-14T13:55:03;5.80;99.90
612;DHT22;293;53.888;11.464;2023-12-14T13:57:30;5.80;99.90
612;DHT22;293;53.888;11.464;2023-12-14T13:59:57;5.70;99.90
612;DHT22;293;53.888;11.464;2023-12-14T14:02:25;5.70;99.90
612;DHT22;293;53.888;11.464;2023-12-14T14:04:54;5.70;99.90
612;DHT22;293;53.888;11.464;2023-12-14T14:07:21;5.70;99.90
612;DHT22;293;53.888;11.464;2023-12-14T14:09:48;5.70;99.90
612;DHT22;293;53.888;11.464;2023-12-14T14:12:15;5.70;99.90
612;DHT22;293;53.888;11.464;2023-12-14T14:14:42;5.60;99.90
612;DHT22;293;53.888;11.464;2023-12-14T14:17:08;5.60;99.90
612;DHT22;293;53.888;11.464;2023-12-14T14:19:37;5.60;99.90
612;DHT22;293;53.888;11.464;2023-12-14T14:22:04;5.60;99.90
612;DHT22;293;53.888;11.464;2023-12-14T14:24:31;5.50;99.90
612;DHT22;293;53.888;11.464;2023-12-14T14:26:58;5.40;99.90
612;DHT22;293;53.888;11.464;2023-12-14T14:29:25;5.40;99.90
612;DHT22;293;53.888;11.464;2023-12-14T14:31:52;5.40;99.90
612;DHT22;293;53.888;11.464;2023-12-14T14:34:18;5.40;99.90
612;DHT22;293;53.888;11.464;2023-12-14T14:36:47;5.40;99.90
612;DHT22;293;53.888;11.464;2023-12-14T14:39:13;5.40;99.90
612;DHT22;293;53.888;11.464;2023-12-14T14:41:43;5.30;99.90
612;DHT22;293;53.888;11.464;2023-12-14T14:44:11;5.30;99.90
612;DHT22;293;53.888;11.464;2023-12-14T14:46:38;5.40;99.90
612;DHT22;293;53.888;11.464;2023-12-14T14:49:04;5.40;99.90
612;DHT22;293;53.888;11.464;2023-12-14T14:51:32;5.40;99.90
612;DHT22;293;53.888;11.464;2023-12-14T14:54:00;5.40;99.90
612;DHT22;293;53.888;11.464;2023-12-14T14:56:27;5.30;99.90
612;DHT22;293;53.888;11.464;2023-12-14T14:58:53;5.30;99.90
612;DHT22;293;53.888;11.464;2023-12-14T15:01:21;5.20;99.90
612;DHT22;293;53.888;11.464;2023-12-14T15:03:48;5.20;99.90
612;DHT22;293;53.888;11.464;2023-12-14T15:06:15;5.30;99.90
612;DHT22;293;53.888;11.464;2023-12-14T15:08:42;5.30;99.90
612;DHT22;293;53.888;11.464;2023-12-14T15:11:10;5.30;99.90
612;DHT22;293;53.888;11.464;2023-12-14T15:13:37;5.20;99.90
612;DHT22;293;53.888;11.464;2023-12-14T15:16:05;5.20;99.90
612;DHT22;293;53.888;11.464;2023-12-14T15:18:32;5.20;99.90
612;DHT22;293;53.888;11.464;2023-12-14T15:21:06;5.10;99.90
612;DHT22;293;53.888;11.464;2023-12-14T15:23:33;5.10;99.90
612;DHT22;293;53.888;11.464;2023-12-14T15:26:00;5.10;99.90
612;DHT22;293;53.888;11.464;2023-12-14T15:28:29;5.10;99.90
612;DHT22;293;53.888;11.464;2023-12-14T15:30:55;5.10;99.90
612;DHT22;293;53.888;11.464;2023-12-14T15:33:22;5.10;99.90
612;DHT22;293;53.888;11.464;2023-12-14T15:35:49;5.10;99.90
612;DHT22;293;53.888;11.464;2023-12-14T15:38:16;5.10;99.90
612;DHT22;293;53.888;11.464;2023-12-14T15:40:43;5.20;99.90
612;DHT22;293;53.888;11.464;2023-12-14T15:43:10;5.20;99.90
612;DHT22;293;53.888;11.464;2023-12-14T15:45:39;5.20;99.90
612;DHT22;293;53.888;11.464;2023-12-14T15:48:06;5.20;99.90
612;DHT22;293;53.888;11.464;2023-12-14T15:50:33;5.20;99.90
612;DHT22;293;53.888;11.464;2023-12-14T15:53:00;5.20;99.90
612;DHT22;293;53.888;11.464;2023-12-14T15:55:27;5.20;99.90
612;DHT22;293;53.888;11.464;2023-12-14T15:57:55;5.20;99.90
612;DHT22;293;53.888;11.464;2023-12-14T16:00:21;5.20;99.90
612;DHT22;293;53.888;11.464;2023-12-14T16:02:50;5.20;99.90
612;DHT22;293;53.888;11.464;2023-12-14T16:05:16;5.20;99.90
612;DHT22;293;53.888;11.464;2023-12-14T16:07:43;5.30;99.90
612;DHT22;293;53.888;11.464;2023-12-14T16:10:10;5.20;99.90
612;DHT22;293;53.888;11.464;2023-12-14T16:12:37;5.30;99.90
612;DHT22;293;53.888;11.464;2023-12-14T16:15:06;5.20;99.90
612;DHT22;293;53.888;11.464;2023-12-14T16:17:33;5.30;99.90
612;DHT22;293;53.888;11.464;2023-12-14T16:20:02;5.30;99.90
612;DHT22;293;53.888;11.464;2023-12-14T16:22:30;5.30;99.90
612;DHT22;293;53.888;11.464;2023-12-14T16:24:57;5.30;99.90
612;DHT22;293;53.888;11.464;2023-12-14T16:27:24;5.30;99.90
612;DHT22;293;53.888;11.464;2023-12-14T16:29:51;5.30;99.90
612;DHT22;293;53.888;11.464;2023-12-14T16:32:18;5.30;99.90
612;DHT22;293;53.888;11.464;2023-12-14T16:34:45;5.30;99.90